Time;durP1;ratioP1;P1;durP2;ratioP2;P2;SDS_P1;SDS_P2;PMS_P1;PMS_P2;Temp;Humidity;BMP_temperature;BMP_pressure;BME280_temperature;BME280_humidity;BME280_pressure;Samples;Min_cycle;Max_cycle;Signal;HPM_P1;HPM_P2
2022/01/11 00:00:21;;;;;;;0.00;0.00;;;;;;;-2.30;100.00;99842.25;5014316;28;20568;-58
2022/01/11 00:02:48;;;;;;;0.00;0.00;;;;;;;-2.34;100.00;99838.94;5014397;28;20235;-59
2022/01/11 00:05:22;;;;;;;0.00;0.00;;;;;;;-2.37;100.00;99837.28;5010468;28;20200;-59
2022/01/11 00:07:51;;;;;;;0.00;0.00;;;;;;;-2.41;100.00;99840.78;5006328;28;20200;-59
2022/01/11 00:10:26;;;;;;;0.00;0.00;;;;;;;-2.48;100.00;99835.88;5014167;28;20204;-59
2022/01/11 00:12:53;;;;;;;0.00;0.00;;;;;;;-2.42;100.00;99835.72;5014561;28;20227;-59
2022/01/11 00:15:20;;;;;;;0.00;0.00;;;;;;;-2.44;100.00;99835.75;5014174;28;20194;-58
2022/01/11 00:17:50;;;;;;;0.00;0.00;;;;;;;-2.43;100.00;99836.63;5014345;28;20245;-59
2022/01/11 00:20:19;;;;;;;0.00;0.00;;;;;;;-2.41;100.00;99835.69;5013736;28;20657;-59
2022/01/11 00:24:27;;;;;;;0.00;0.00;;;;;;;-2.45;100.00;99838.38;5014399;28;20217;-59
2022/01/11 00:25:41;;;;;;;0.00;0.00;;;;;;;-2.43;100.00;99844.28;5014300;28;20699;-59
2022/01/11 00:28:10;;;;;;;0.00;0.00;;;;;;;-2.44;100.00;99848.53;5007915;28;20231;-59
2022/01/11 00:30:45;;;;;;;0.00;0.00;;;;;;;-2.49;100.00;99837.59;5007558;28;20549;-60
2022/01/11 00:33:16;;;;;;;0.00;0.00;;;;;;;-2.50;100.00;99851.25;5011997;28;20274;-62
2022/01/11 00:35:44;;;;;;;0.00;0.00;;;;;;;-2.53;100.00;99851.31;5011719;28;20818;-59
2022/01/11 00:38:15;;;;;;;0.00;0.00;;;;;;;-2.52;100.00;99853.00;5013632;28;20200;-59
2022/01/11 00:40:46;;;;;;;0.00;0.00;;;;;;;-2.50;100.00;99858.09;5009660;28;20199;-58
2022/01/11 00:43:13;;;;;;;0.00;0.00;;;;;;;-2.50;100.00;99850.44;5003975;28;20220;-58
2022/01/11 00:45:41;;;;;;;0.00;0.00;;;;;;;-2.46;100.00;99845.19;5003429;28;20207;-59
2022/01/11 00:48:08;;;;;;;0.00;0.00;;;;;;;-2.55;100.00;99843.69;5017902;28;20209;-59
2022/01/11 00:50:36;;;;;;;0.00;0.00;;;;;;;-2.53;100.00;99843.66;5023687;28;20195;-59
2022/01/11 00:53:04;;;;;;;0.00;0.00;;;;;;;-2.54;100.00;99847.94;5022462;28;20225;-59
2022/01/11 00:55:31;;;;;;;0.00;0.00;;;;;;;-2.52;100.00;99842.78;5022212;28;20199;-59
2022/01/11 00:58:00;;;;;;;0.00;0.00;;;;;;;-2.53;100.00;99841.94;5029227;28;20190;-59
2022/01/11 01:00:27;;;;;;;0.00;0.00;;;;;;;-2.57;100.00;99844.59;5006040;28;20676;-59
2022/01/11 01:02:53;;;;;;;0.00;0.00;;;;;;;-2.64;100.00;99846.47;5003462;28;20211;-58
2022/01/11 01:05:21;;;;;;;0.00;0.00;;;;;;;-2.66;100.00;99850.78;4993560;28;20192;-59
2022/01/11 01:07:49;;;;;;;0.00;0.00;;;;;;;-2.69;100.00;99843.19;4995170;28;20261;-59
2022/01/11 01:10:25;;;;;;;0.03;0.03;;;;;;;-2.67;100.00;99844.84;5010501;28;20258;-59
2022/01/11 01:12:52;;;;;;;0.00;0.00;;;;;;;-2.58;100.00;99856.56;5013336;28;20212;-59
2022/01/11 01:15:21;;;;;;;0.03;0.03;;;;;;;-2.59;100.00;99854.88;5012049;28;20231;-59
2022/01/11 01:17:49;;;;;;;0.00;0.00;;;;;;;-2.54;100.00;99850.50;5011585;28;20297;-59
2022/01/11 01:20:15;;;;;;;0.07;0.07;;;;;;;-2.49;100.00;99855.47;5011550;28;20201;-59
2022/01/11 01:22:42;;;;;;;0.00;0.00;;;;;;;-2.60;100.00;99853.19;5013048;28;20215;-59
2022/01/11 01:25:10;;;;;;;0.00;0.00;;;;;;;-2.59;100.00;99848.91;5008506;28;20664;-59
2022/01/11 01:27:37;;;;;;;0.00;0.00;;;;;;;-2.60;100.00;99852.34;4992442;28;20559;-59
2022/01/11 01:30:05;;;;;;;0.00;0.00;;;;;;;-2.64;100.00;99851.59;4991400;28;20191;-59
2022/01/11 01:32:33;;;;;;;0.00;0.00;;;;;;;-2.64;100.00;99858.41;4992000;28;20315;-59
2022/01/11 01:35:04;;;;;;;0.00;0.00;;;;;;;-2.60;100.00;99857.47;4992049;28;20239;-58
2022/01/11 01:37:31;;;;;;;0.00;0.00;;;;;;;-2.52;100.00;99860.66;4993418;28;20184;-58
2022/01/11 01:39:57;;;;;;;0.00;0.00;;;;;;;-2.61;100.00;99866.84;4992390;28;20268;-59
2022/01/11 01:42:28;;;;;;;0.00;0.00;;;;;;;-2.68;100.00;99860.22;5008974;28;20212;-59
2022/01/11 01:44:55;;;;;;;0.00;0.00;;;;;;;-2.69;100.00;99863.66;5012712;28;20534;-59
2022/01/11 01:47:22;;;;;;;0.00;0.00;;;;;;;-2.64;100.00;99866.06;5005201;28;20528;-59
2022/01/11 01:49:50;;;;;;;0.00;0.00;;;;;;;-2.71;100.00;99865.41;4992231;28;20210;-59
2022/01/11 01:52:17;;;;;;;0.00;0.00;;;;;;;-2.70;100.00;99872.19;4991398;28;20212;-58
2022/01/11 01:54:44;;;;;;;0.00;0.00;;;;;;;-2.68;100.00;99873.84;4999644;28;20209;-58
2022/01/11 01:57:11;;;;;;;0.03;0.03;;;;;;;-2.59;100.00;99867.66;5020022;28;20202;-58
2022/01/11 01:59:38;;;;;;;0.00;0.00;;;;;;;-2.69;100.00;99874.72;5021988;28;20199;-59
2022/01/11 02:02:08;;;;;;;0.00;0.00;;;;;;;-2.63;100.00;99868.59;5030892;28;20305;-64
2022/01/11 02:04:35;;;;;;;0.00;0.00;;;;;;;-2.71;100.00;99867.94;5032150;28;20299;-55
2022/01/11 02:07:04;;;;;;;0.00;0.00;;;;;;;-2.78;100.00;99874.94;5030882;28;20190;-53
2022/01/11 02:09:31;;;;;;;0.00;0.00;;;;;;;-2.71;100.00;99876.47;5002775;28;20549;-55
2022/01/11 02:11:58;;;;;;;0.00;0.00;;;;;;;-2.77;100.00;99876.63;5010851;28;20645;-56
2022/01/11 02:14:26;;;;;;;0.00;0.00;;;;;;;-2.76;100.00;99877.44;5010829;28;20591;-55
2022/01/11 02:16:59;;;;;;;0.00;0.00;;;;;;;-2.78;100.00;99877.50;5011212;28;20202;-55
2022/01/11 02:19:26;;;;;;;0.00;0.00;;;;;;;-2.68;100.00;99878.09;5010712;28;20718;-52
2022/01/11 02:21:55;;;;;;;0.00;0.00;;;;;;;-2.71;100.00;99880.72;5009779;28;20214;-56
2022/01/11 02:24:22;;;;;;;0.00;0.00;;;;;;;-2.78;100.00;99881.75;5010782;28;20780;-54
2022/01/11 02:26:53;;;;;;;0.00;0.00;;;;;;;-2.80;100.00;99876.69;5010869;28;20201;-56
2022/01/11 02:29:20;;;;;;;0.00;0.00;;;;;;;-2.82;100.00;99883.53;5010336;28;20210;-55
2022/01/11 02:31:47;;;;;;;0.00;0.00;;;;;;;-2.77;100.00;99880.88;5009709;28;20207;-55
2022/01/11 02:34:14;;;;;;;0.00;0.00;;;;;;;-2.80;100.00;99881.78;5011816;28;20219;-55
2022/01/11 02:36:47;;;;;;;0.00;0.00;;;;;;;-2.85;100.00;99884.44;5010664;28;20188;-55
2022/01/11 02:39:34;;;;;;;0.00;0.00;;;;;;;-2.83;100.00;99882.69;5009891;28;20196;-55
2022/01/11 02:42:09;;;;;;;0.00;0.00;;;;;;;-2.72;100.00;99882.47;5010428;28;20951;-54
2022/01/11 02:44:39;;;;;;;0.00;0.00;;;;;;;-2.75;100.00;99879.13;5010606;28;20202;-56
2022/01/11 02:47:12;;;;;;;0.00;0.00;;;;;;;-2.80;100.00;99883.50;5004139;28;20407;-56
2022/01/11 02:52:22;;;;;;;0.00;0.00;;;;;;;-2.79;100.00;99875.81;5190481;22;20235;-55
2022/01/11 02:54:56;;;;;;;0.00;0.00;;;;;;;-2.85;100.00;99875.94;4983750;28;20724;-55
2022/01/11 02:57:23;;;;;;;0.00;0.00;;;;;;;-2.86;100.00;99881.94;4975594;28;20200;-53
2022/01/11 02:59:56;;;;;;;0.00;0.00;;;;;;;-2.76;100.00;99880.00;4973074;28;20200;-56
2022/01/11 03:02:25;;;;;;;0.00;0.00;;;;;;;-2.75;100.00;99879.13;4973743;28;20224;-56
2022/01/11 03:04:54;;;;;;;0.00;0.00;;;;;;;-2.70;100.00;99878.16;4991221;28;20675;-55
2022/01/11 03:07:23;;;;;;;0.00;0.00;;;;;;;-2.62;100.00;99880.50;4991118;28;20283;-53
2022/01/11 03:10:02;;;;;;;0.00;0.00;;;;;;;-2.71;100.00;99881.59;4972645;28;20211;-56
2022/01/11 03:12:35;;;;;;;0.00;0.00;;;;;;;-2.75;100.00;99887.66;4955709;28;20216;-56
2022/01/11 03:15:02;;;;;;;0.00;0.00;;;;;;;-2.74;100.00;99883.34;4974513;28;20196;-53
2022/01/11 03:17:28;;;;;;;0.00;0.00;;;;;;;-2.73;100.00;99887.59;4957207;28;20279;-53
2022/01/11 03:19:55;;;;;;;0.00;0.00;;;;;;;-2.82;100.00;99886.09;4957621;28;20222;-52
2022/01/11 03:22:23;;;;;;;0.00;0.00;;;;;;;-2.78;100.00;99892.81;4955269;28;20216;-53
2022/01/11 03:24:51;;;;;;;0.00;0.00;;;;;;;-2.73;100.00;99888.44;4972728;28;20197;-55
2022/01/11 03:27:18;;;;;;;0.00;0.00;;;;;;;-2.73;100.00;99888.44;4961324;28;20195;-50
2022/01/11 03:29:46;;;;;;;0.00;0.00;;;;;;;-2.64;100.00;99889.06;5015048;22;20701;-55
2022/01/11 03:32:18;;;;;;;0.00;0.00;;;;;;;-2.69;100.00;99889.19;5027054;28;20203;-55
2022/01/11 03:34:46;;;;;;;0.00;0.00;;;;;;;-2.75;100.00;99895.31;5033561;28;20572;-55
2022/01/11 03:37:17;;;;;;;0.00;0.00;;;;;;;-2.77;100.00;99897.06;5031897;28;20293;-57
2022/01/11 03:39:45;;;;;;;0.00;0.00;;;;;;;-2.83;100.00;99899.75;5045483;28;20971;-57
2022/01/11 03:42:12;;;;;;;0.00;0.00;;;;;;;-2.92;100.00;99898.22;5011982;28;20194;-57
2022/01/11 03:44:39;;;;;;;0.00;0.00;;;;;;;-2.97;100.00;99895.78;5019795;28;20193;-54
2022/01/11 03:47:08;;;;;;;0.00;0.00;;;;;;;-3.01;100.00;99893.31;5019862;28;20198;-56
2022/01/11 03:49:35;;;;;;;0.07;0.07;;;;;;;-3.11;100.00;99903.72;5015731;28;20622;-57
2022/01/11 03:52:03;;;;;;;0.00;0.00;;;;;;;-3.13;100.00;99897.81;5015417;28;20194;-57
2022/01/11 03:54:43;;;;;;;0.00;0.00;;;;;;;-3.15;100.00;99893.63;5011534;28;20701;-56
2022/01/11 03:57:20;;;;;;;0.00;0.00;;;;;;;-3.25;100.00;99890.44;5014264;28;20666;-57
2022/01/11 03:59:49;;;;;;;0.00;0.00;;;;;;;-3.13;100.00;99896.97;5016644;28;20218;-57
2022/01/11 04:02:17;;;;;;;0.00;0.00;;;;;;;-3.09;100.00;99896.03;5015050;28;20622;-56
2022/01/11 04:04:52;;;;;;;0.00;0.00;;;;;;;-3.13;100.00;99886.75;5012082;28;20190;-56
2022/01/11 04:07:19;;;;;;;0.00;0.00;;;;;;;-3.18;100.00;99886.84;5015890;28;20197;-55
2022/01/11 04:09:46;;;;;;;0.00;0.00;;;;;;;-3.20;100.00;99888.63;5037939;28;20305;-55
2022/01/11 04:12:13;;;;;;;0.00;0.00;;;;;;;-3.05;100.00;99884.03;5014953;28;20190;-56
2022/01/11 04:14:40;;;;;;;0.00;0.00;;;;;;;-2.99;100.00;99889.00;5033001;28;20237;-56
2022/01/11 04:17:07;;;;;;;0.10;0.10;;;;;;;-3.08;100.00;99892.63;5040185;28;20587;-56
2022/01/11 04:19:38;;;;;;;0.00;0.00;;;;;;;-3.06;100.00;99893.44;5033339;28;20295;-52
2022/01/11 04:22:05;;;;;;;0.00;0.00;;;;;;;-3.07;100.00;99899.41;5014950;28;20194;-56
2022/01/11 04:24:33;;;;;;;0.00;0.00;;;;;;;-3.03;100.00;99893.34;5015780;28;20186;-56
2022/01/11 04:27:00;;;;;;;0.00;0.00;;;;;;;-2.99;100.00;99901.78;5015508;28;20222;-55
2022/01/11 04:29:27;;;;;;;0.00;0.00;;;;;;;-2.93;100.00;99891.44;5015474;28;20226;-56
2022/01/11 04:31:54;;;;;;;0.00;0.00;;;;;;;-3.05;100.00;99913.00;5033534;28;20209;-55
2022/01/11 04:34:22;;;;;;;0.00;0.00;;;;;;;-3.11;100.00;99908.84;5016275;28;20233;-56
2022/01/11 04:36:50;;;;;;;0.00;0.00;;;;;;;-3.05;100.00;99912.13;5016360;28;20202;-56
2022/01/11 04:39:18;;;;;;;0.00;0.00;;;;;;;-3.12;100.00;99919.09;5015831;28;20201;-55
2022/01/11 04:41:46;;;;;;;0.00;0.00;;;;;;;-3.15;100.00;99919.16;5015893;28;20221;-55
2022/01/11 04:44:13;;;;;;;0.00;0.00;;;;;;;-3.21;100.00;99930.34;5015538;28;20268;-57
2022/01/11 04:46:58;;;;;;;0.00;0.00;;;;;;;-3.22;100.00;99930.38;5034066;28;20263;-57
2022/01/11 04:49:26;;;;;;;0.00;0.00;;;;;;;-3.43;100.00;99935.88;5033838;28;20614;-55
2022/01/11 04:51:56;;;;;;;0.00;0.00;;;;;;;-3.58;100.00;99948.94;5014443;28;20759;-56
2022/01/11 04:54:23;;;;;;;0.00;0.00;;;;;;;-3.61;100.00;99941.34;5033217;28;20207;-56
2022/01/11 04:56:51;;;;;;;0.00;0.00;;;;;;;-3.63;100.00;99945.63;5015621;28;20190;-56
2022/01/11 04:59:18;;;;;;;0.00;0.00;;;;;;;-3.72;100.00;99944.94;5015681;28;20273;-56
2022/01/11 05:01:45;;;;;;;0.00;0.00;;;;;;;-3.80;100.00;99946.78;5032984;28;20559;-56
2022/01/11 05:04:13;;;;;;;0.00;0.00;;;;;;;-3.84;100.00;99951.97;5049026;28;20195;-56
2022/01/11 05:06:40;;;;;;;0.00;0.00;;;;;;;-3.91;100.00;99951.22;5016016;28;20280;-56
2022/01/11 05:09:08;;;;;;;0.00;0.00;;;;;;;-3.96;100.00;99953.00;5048978;28;20189;-56
2022/01/11 05:11:36;;;;;;;0.00;0.00;;;;;;;-3.98;100.00;99954.75;5015086;28;20230;-56
2022/01/11 05:14:03;;;;;;;0.00;0.00;;;;;;;-4.00;100.00;99957.31;5033639;28;20217;-57
2022/01/11 05:16:43;;;;;;;0.00;0.00;;;;;;;-4.01;100.00;99956.47;5015810;28;20197;-57
2022/01/11 05:19:12;;;;;;;0.00;0.00;;;;;;;-4.07;100.00;99958.28;5015530;28;20289;-56
2022/01/11 05:21:41;;;;;;;0.00;0.00;;;;;;;-4.12;100.00;99957.53;5015323;28;20191;-57
2022/01/11 05:24:10;;;;;;;0.00;0.00;;;;;;;-4.11;100.00;99961.75;5015751;28;20198;-56
2022/01/11 05:26:38;;;;;;;0.10;0.10;;;;;;;-4.13;100.00;99961.78;5015743;28;20189;-55
2022/01/11 05:29:05;;;;;;;0.00;0.00;;;;;;;-4.21;100.00;99953.41;5033026;28;20198;-57
2022/01/11 05:31:34;;;;;;;0.00;0.00;;;;;;;-4.19;100.00;99956.75;5014662;28;20232;-56
2022/01/11 05:34:02;;;;;;;0.00;0.00;;;;;;;-4.21;100.00;99958.50;5015424;28;20314;-57
2022/01/11 05:36:29;;;;;;;0.00;0.00;;;;;;;-4.20;100.00;99966.13;5048674;28;20243;-57
2022/01/11 05:38:55;;;;;;;0.10;0.10;;;;;;;-4.24;100.00;99966.22;5015337;28;20243;-55
2022/01/11 05:41:24;;;;;;;0.10;0.10;;;;;;;-4.24;100.00;99964.50;5032029;28;20265;-56
2022/01/11 05:43:51;;;;;;;0.00;0.00;;;;;;;-4.21;100.00;99968.69;5015344;28;20602;-57
2022/01/11 05:46:18;;;;;;;0.00;0.00;;;;;;;-4.20;100.00;99970.38;5015365;28;20289;-57
2022/01/11 05:48:45;;;;;;;0.00;0.00;;;;;;;-4.24;100.00;99969.59;5015549;28;20252;-55
2022/01/11 05:51:14;;;;;;;0.00;0.00;;;;;;;-4.28;100.00;99969.69;5014437;28;20208;-56
2022/01/11 05:53:41;;;;;;;0.00;0.00;;;;;;;-4.26;100.00;99973.06;5047628;28;20188;-57
2022/01/11 05:56:08;;;;;;;0.00;0.00;;;;;;;-4.26;100.00;99978.16;5031237;28;20207;-57
2022/01/11 05:58:37;;;;;;;0.00;0.00;;;;;;;-4.26;100.00;99978.16;5014382;28;20292;-57
2022/01/11 06:01:05;;;;;;;0.00;0.00;;;;;;;-4.19;100.00;99983.13;5013931;28;20211;-57
2022/01/11 06:03:31;;;;;;;0.00;0.00;;;;;;;-4.21;100.00;99984.00;5031774;28;20184;-57
2022/01/11 06:05:59;;;;;;;0.00;0.00;;;;;;;-4.25;100.00;99985.75;5018439;28;20754;-57
2022/01/11 06:08:26;;;;;;;0.00;0.00;;;;;;;-4.15;100.00;99987.31;5032379;28;20686;-57
2022/01/11 06:10:53;;;;;;;0.00;0.00;;;;;;;-4.15;100.00;99999.19;5031705;28;20681;-56
2022/01/11 06:13:22;;;;;;;0.00;0.00;;;;;;;-4.11;100.00;99997.47;5031589;28;20531;-57
2022/01/11 06:15:55;;;;;;;0.00;0.00;;;;;;;-4.10;100.00;100002.53;5031151;28;20222;-57
2022/01/11 06:18:22;;;;;;;0.00;0.00;;;;;;;-4.06;100.00;100001.63;5032595;28;20193;-57
2022/01/11 06:21:24;;;;;;;0.00;0.00;;;;;;;-3.94;100.00;100007.38;5016937;28;20209;-57
2022/01/11 06:23:51;;;;;;;0.00;0.00;;;;;;;-3.88;100.00;100004.75;5031068;28;20205;-54
2022/01/11 06:26:19;;;;;;;0.00;0.00;;;;;;;-3.84;100.00;100003.00;5031083;28;20262;-52
2022/01/11 06:28:46;;;;;;;0.00;0.00;;;;;;;-3.79;100.00;100006.31;5031137;28;20204;-56
2022/01/11 06:31:14;;;;;;;0.00;0.00;;;;;;;-3.77;100.00;100007.94;5029964;28;20602;-56
2022/01/11 06:33:43;;;;;;;0.00;0.00;;;;;;;-3.73;100.00;100007.03;5030668;28;20275;-57
2022/01/11 06:36:15;;;;;;;0.00;0.00;;;;;;;-3.66;100.00;100014.59;5030812;28;20276;-56
2022/01/11 06:38:43;;;;;;;0.00;0.00;;;;;;;-3.62;100.00;100009.38;5030883;28;20194;-57
2022/01/11 06:41:12;;;;;;;0.00;0.00;;;;;;;-3.58;100.00;100010.19;5030176;28;20235;-57
2022/01/11 06:43:41;;;;;;;0.00;0.00;;;;;;;-3.50;100.00;100010.91;5030959;28;20201;-55
2022/01/11 06:46:08;;;;;;;0.00;0.00;;;;;;;-3.45;100.00;100016.78;5030733;28;20190;-57
2022/01/11 06:48:36;;;;;;;0.00;0.00;;;;;;;-3.37;100.00;100018.34;5032019;28;20257;-57
2022/01/11 06:51:04;;;;;;;0.00;0.00;;;;;;;-3.32;100.00;100021.66;5029367;28;20217;-57
2022/01/11 06:53:40;;;;;;;0.00;0.00;;;;;;;-3.14;100.00;100013.63;5030140;28;20197;-54
2022/01/11 06:56:09;;;;;;;0.00;0.00;;;;;;;-3.02;100.00;100019.38;5031941;28;20225;-57
2022/01/11 06:58:38;;;;;;;0.00;0.00;;;;;;;-2.93;100.00;100023.47;5030735;28;20250;-56
2022/01/11 07:01:05;;;;;;;0.00;0.00;;;;;;;-2.82;100.00;100027.47;5029438;28;20210;-56
2022/01/11 07:03:33;;;;;;;0.00;0.00;;;;;;;-2.63;100.00;100023.69;5030129;28;20193;-57
2022/01/11 07:06:17;;;;;;;0.00;0.00;;;;;;;-2.49;100.00;100031.09;5031773;28;20698;-56
2022/01/11 07:08:44;;;;;;;0.00;0.00;;;;;;;-2.32;100.00;100031.56;5030265;28;20198;-55
2022/01/11 07:11:12;;;;;;;0.00;0.00;;;;;;;-2.23;100.00;100031.34;5029396;28;20217;-57
2022/01/11 07:13:40;;;;;;;0.00;0.00;;;;;;;-2.08;100.00;100034.41;5030574;28;20611;-57
2022/01/11 07:16:07;;;;;;;0.00;0.00;;;;;;;-2.02;100.00;100041.13;5030180;28;20301;-57
2022/01/11 07:18:35;;;;;;;0.00;0.00;;;;;;;-1.97;100.00;100047.78;5030459;28;20282;-57
2022/01/11 07:21:03;;;;;;;0.00;0.00;;;;;;;-1.90;100.00;100051.06;5029681;28;20215;-57
2022/01/11 07:23:34;;;;;;;0.00;0.00;;;;;;;-1.84;100.00;100053.47;5030431;28;20195;-57
2022/01/11 07:26:02;;;;;;;0.00;0.00;;;;;;;-1.80;100.00;100057.66;5030447;28;20185;-55
2022/01/11 07:28:31;;;;;;;0.00;0.00;;;;;;;-1.75;100.00;100056.69;5030422;28;20221;-56
2022/01/11 07:31:00;;;;;;;0.00;0.00;;;;;;;-1.73;100.00;100065.19;5029248;28;20232;-55
2022/01/11 07:33:27;;;;;;;0.00;0.00;;;;;;;-1.70;100.00;100065.94;5031446;28;20194;-56
2022/01/11 07:35:55;;;;;;;0.00;0.00;;;;;;;-1.69;100.00;100059.94;5029357;28;20222;-54
2022/01/11 07:38:22;;;;;;;0.00;0.00;;;;;;;-1.70;100.00;100068.50;5030841;28;20199;-54
2022/01/11 07:40:50;;;;;;;0.00;0.00;;;;;;;-1.67;100.00;100070.97;5029743;28;20266;-55
2022/01/11 07:43:28;;;;;;;0.00;0.00;;;;;;;-1.66;100.00;100069.28;5029636;28;20624;-57
2022/01/11 07:46:00;;;;;;;0.00;0.00;;;;;;;-1.66;100.00;100070.09;5029471;28;20217;-56
2022/01/11 07:48:36;;;;;;;0.00;0.00;;;;;;;-1.53;100.00;100087.72;5029363;28;20195;-54
2022/01/11 07:51:06;;;;;;;0.00;0.00;;;;;;;-1.46;100.00;100089.25;5028524;28;20310;-55
2022/01/11 07:53:36;;;;;;;0.00;0.00;;;;;;;-1.44;100.00;100095.19;5019678;28;20222;-54
2022/01/11 07:56:10;;;;;;;0.00;0.00;;;;;;;-1.36;100.00;100093.28;5045793;28;20218;-56
2022/01/11 07:58:38;;;;;;;0.00;0.00;;;;;;;-1.40;100.00;100099.34;5038326;28;20291;-56
2022/01/11 08:01:05;;;;;;;0.00;0.00;;;;;;;-1.31;100.00;100093.16;5028211;28;20218;-55
2022/01/11 08:03:38;;;;;;;0.00;0.00;;;;;;;-1.26;100.00;100098.19;5010551;28;20565;-56
2022/01/11 08:06:13;;;;;;;0.00;0.00;;;;;;;-1.19;100.00;100099.69;5025109;28;20220;-56
2022/01/11 08:08:43;;;;;;;0.00;0.00;;;;;;;-1.12;100.00;100103.78;5013878;28;20257;-53
2022/01/11 08:11:12;;;;;;;0.00;0.00;;;;;;;-1.05;100.00;100100.16;5030220;28;20228;-54
2022/01/11 08:13:39;;;;;;;0.00;0.00;;;;;;;-0.99;100.00;100103.44;5030042;28;20657;-55
2022/01/11 08:16:07;;;;;;;0.00;0.00;;;;;;;-0.88;100.00;100103.16;5029822;28;20215;-55
2022/01/11 08:18:34;;;;;;;0.00;0.00;;;;;;;-0.78;99.93;100107.16;5020867;28;20192;-55
2022/01/11 08:21:02;;;;;;;0.00;0.00;;;;;;;-0.71;100.00;100111.25;5016013;28;20711;-55
2022/01/11 08:23:29;;;;;;;0.00;0.00;;;;;;;-0.58;100.00;100106.59;5017064;28;20198;-56
2022/01/11 08:25:58;;;;;;;0.00;0.00;;;;;;;-0.53;100.00;100102.19;5015092;28;20184;-56
2022/01/11 08:28:27;;;;;;;0.00;0.00;;;;;;;-0.48;99.57;100109.75;5015292;28;20203;-55
2022/01/11 08:30:58;;;;;;;0.00;0.00;;;;;;;-0.36;99.60;100104.25;5011286;28;20309;-56
2022/01/11 08:33:28;;;;;;;0.00;0.00;;;;;;;-0.22;99.20;100106.44;5018175;28;20188;-55
2022/01/11 08:35:55;;;;;;;0.00;0.00;;;;;;;-0.13;99.40;100100.19;5031578;28;20216;-55
2022/01/11 08:38:24;;;;;;;0.00;0.00;;;;;;;0.02;99.05;100096.28;5019521;28;20194;-54
2022/01/11 08:40:52;;;;;;;0.00;0.00;;;;;;;0.06;98.51;100109.88;5031238;28;20616;-55
2022/01/11 08:43:20;;;;;;;0.00;0.00;;;;;;;0.19;99.08;100110.34;5024783;28;20200;-54
2022/01/11 08:45:48;;;;;;;0.00;0.00;;;;;;;0.26;98.43;100110.13;5024836;28;20262;-54
2022/01/11 08:48:17;;;;;;;0.00;0.00;;;;;;;0.39;98.64;100109.72;5024976;28;20561;-56
2022/01/11 08:50:53;;;;;;;0.00;0.00;;;;;;;0.55;97.73;100113.44;5032342;28;20740;-55
2022/01/11 08:53:24;;;;;;;0.00;0.00;;;;;;;0.63;97.28;100109.78;5032822;28;20200;-55
2022/01/11 08:55:52;;;;;;;0.00;0.00;;;;;;;0.75;96.33;100111.97;5032620;28;20215;-56
2022/01/11 08:58:20;;;;;;;0.00;0.00;;;;;;;0.87;96.11;100114.13;5032601;28;20282;-55
2022/01/11 09:00:50;;;;;;;0.00;0.00;;;;;;;0.98;95.54;100115.47;5011718;28;20219;-56
2022/01/11 09:03:17;;;;;;;0.00;0.00;;;;;;;1.02;94.94;100117.91;5022723;28;20192;-56
2022/01/11 09:05:48;;;;;;;0.00;0.00;;;;;;;1.09;95.21;100112.53;5024442;28;20188;-56
2022/01/11 09:08:17;;;;;;;0.00;0.00;;;;;;;1.21;95.22;100111.28;5032489;28;20283;-55
2022/01/11 09:10:44;;;;;;;0.00;0.00;;;;;;;1.29;94.19;100104.94;5033334;28;20210;-55
2022/01/11 09:13:12;;;;;;;0.00;0.00;;;;;;;1.32;94.31;100112.56;5024905;28;20219;-55
2022/01/11 09:15:39;;;;;;;0.00;0.00;;;;;;;1.47;94.59;100115.47;5023919;28;20204;-56
2022/01/11 09:18:10;;;;;;;0.00;0.00;;;;;;;1.60;94.01;100116.72;5011088;28;20533;-56
2022/01/11 09:20:39;;;;;;;0.00;0.00;;;;;;;1.67;92.62;100109.59;5028106;28;20307;-56
2022/01/11 09:23:06;;;;;;;0.00;0.00;;;;;;;1.76;92.13;100098.94;5015778;28;20204;-56
2022/01/11 09:25:38;;;;;;;0.00;0.00;;;;;;;1.79;91.39;100113.44;5013510;28;20206;-55
2022/01/11 09:28:10;;;;;;;0.00;0.00;;;;;;;1.87;91.71;100102.84;5011602;28;20205;-55
2022/01/11 09:30:37;;;;;;;0.00;0.00;;;;;;;1.90;90.65;100103.59;5010802;28;20227;-55
2022/01/11 09:33:03;;;;;;;0.00;0.00;;;;;;;2.01;90.30;100110.88;5030216;28;20219;-56
2022/01/11 09:35:35;;;;;;;0.00;0.00;;;;;;;2.12;90.04;100107.88;5012456;28;20206;-55
2022/01/11 09:45:29;;;;;;;0.00;0.00;;;;;;;2.48;86.74;100116.81;5815058;23;20228;-57
2022/01/11 09:47:56;;;;;;;0.00;0.00;;;;;;;2.70;87.09;100124.50;5010448;28;20661;-57
2022/01/11 09:50:24;;;;;;;0.00;0.00;;;;;;;2.65;86.76;100134.16;5023988;28;20194;-57
2022/01/11 09:53:02;;;;;;;0.00;0.00;;;;;;;2.59;88.12;100124.09;5015862;28;20192;-53
2022/01/11 09:55:31;;;;;;;0.00;0.00;;;;;;;2.68;87.46;100130.59;5018554;28;20217;-58
2022/01/11 09:58:00;;;;;;;0.00;0.00;;;;;;;2.73;87.55;100139.84;5004404;28;20189;-56
2022/01/11 10:00:54;;;;;;;0.00;0.00;;;;;;;2.74;86.99;100143.25;4984992;28;20279;-54
2022/01/11 10:04:00;;;;;;;0.00;0.00;;;;;;;2.80;86.46;100141.25;5004623;28;20557;-55
2022/01/11 10:06:39;;;;;;;0.00;0.00;;;;;;;2.82;85.55;100148.91;5004291;28;20220;-56
2022/01/11 10:09:16;;;;;;;0.00;0.00;;;;;;;2.85;85.23;100150.56;5009631;28;20209;-55
2022/01/11 10:11:45;;;;;;;0.00;0.00;;;;;;;2.78;84.78;100142.22;5000067;28;20193;-58
2022/01/11 10:14:23;;;;;;;0.00;0.00;;;;;;;3.31;98.53;100143.41;5008531;28;20196;-54
2022/01/11 10:17:04;;;;;;;0.00;0.00;;;;;;;3.38;98.04;100149.97;5001341;28;20232;-54
2022/01/11 10:19:31;;;;;;;0.00;0.00;;;;;;;3.61;93.11;100152.47;5032351;28;20601;-50
2022/01/11 10:21:58;;;;;;;0.00;0.00;;;;;;;3.48;87.06;100159.91;4995645;28;20229;-54
2022/01/11 10:24:35;;;;;;;0.00;0.00;;;;;;;3.47;85.50;100148.75;5003340;28;20562;-53
2022/01/11 10:27:11;;;;;;;0.00;0.00;;;;;;;3.09;83.49;100143.50;5003291;28;20274;-53
2022/01/11 10:29:40;;;;;;;0.00;0.00;;;;;;;3.52;85.42;100141.66;5032520;28;20193;-55
2022/01/11 10:32:19;;;;;;;0.00;0.00;;;;;;;3.80;84.66;100155.88;5010880;28;20300;-52
2022/01/11 10:34:48;;;;;;;0.00;0.00;;;;;;;3.80;81.60;100153.31;5010337;28;20188;-54
2022/01/11 10:37:28;;;;;;;0.00;0.00;;;;;;;3.64;82.27;100150.59;5010365;28;20220;-54
2022/01/11 10:40:07;;;;;;;0.00;0.00;;;;;;;3.71;82.10;100156.28;5007118;28;20229;-54
2022/01/11 10:42:38;;;;;;;0.00;0.00;;;;;;;3.46;81.87;100146.22;5027262;28;20746;-55
2022/01/11 10:45:07;;;;;;;0.00;0.00;;;;;;;3.42;82.81;100153.28;5001350;28;20614;-52
2022/01/11 10:47:38;;;;;;;0.00;0.00;;;;;;;3.40;84.57;100152.50;5001957;28;20611;-53
2022/01/11 10:50:11;;;;;;;0.00;0.00;;;;;;;3.61;82.95;100137.81;5009434;28;20196;-55
2022/01/11 10:52:39;;;;;;;0.00;0.00;;;;;;;3.51;82.28;100150.31;5004112;28;20720;-54
2022/01/11 10:55:16;;;;;;;0.00;0.00;;;;;;;3.47;83.96;100141.00;4997454;28;20295;-56
2022/01/11 10:57:48;;;;;;;0.00;0.00;;;;;;;3.54;85.63;100144.16;5008369;28;20194;-58
2022/01/11 11:00:23;;;;;;;0.00;0.00;;;;;;;3.70;84.07;100146.91;5002270;28;20624;-57
2022/01/11 11:03:03;;;;;;;0.00;0.00;;;;;;;3.67;82.42;100142.69;5000775;28;20233;-56
2022/01/11 11:05:36;;;;;;;0.00;0.00;;;;;;;3.60;83.73;100149.03;5000120;28;20294;-56
2022/01/11 11:08:37;;;;;;;0.00;0.00;;;;;;;3.71;84.06;100142.56;4993061;28;20193;-53
2022/01/11 11:11:26;;;;;;;0.00;0.00;;;;;;;3.77;85.49;100145.69;4998713;28;20197;-58
2022/01/11 11:14:11;;;;;;;0.00;0.00;;;;;;;3.92;83.46;100149.34;5003849;28;20205;-57
2022/01/11 11:16:44;;;;;;;0.00;0.00;;;;;;;3.88;84.33;100147.81;5001712;28;20569;-54
2022/01/11 11:19:15;;;;;;;0.00;0.00;;;;;;;3.98;83.65;100154.22;4998603;28;20189;-58
2022/01/11 11:21:54;;;;;;;0.00;0.00;;;;;;;3.99;83.84;100145.56;4994836;28;20682;-57
2022/01/11 11:24:21;;;;;;;0.00;0.00;;;;;;;4.10;84.05;100146.81;4997412;28;20220;-56
2022/01/11 11:26:51;;;;;;;0.00;0.00;;;;;;;4.32;83.02;100153.53;4999451;28;20234;-57
2022/01/11 11:29:22;;;;;;;0.00;0.00;;;;;;;4.26;83.37;100152.91;5000400;28;20655;-55
2022/01/11 11:31:49;;;;;;;0.00;0.00;;;;;;;4.19;84.05;100156.72;5000079;28;20723;-56
2022/01/11 11:34:16;;;;;;;0.00;0.00;;;;;;;4.31;84.88;100157.88;5002075;28;20270;-57
2022/01/11 11:36:44;;;;;;;0.00;0.00;;;;;;;4.36;84.44;100144.72;5002646;28;20222;-56
2022/01/11 11:39:18;;;;;;;0.00;0.00;;;;;;;4.31;83.26;100157.88;5002373;28;20221;-56
2022/01/11 11:41:49;;;;;;;0.00;0.00;;;;;;;4.27;83.79;100148.59;5000885;28;20258;-57
2022/01/11 11:44:20;;;;;;;0.00;0.00;;;;;;;4.27;84.80;100148.59;4999688;28;20524;-56
2022/01/11 11:46:50;;;;;;;0.00;0.00;;;;;;;4.21;85.04;100151.47;4999707;28;20292;-57
2022/01/11 11:49:39;;;;;;;0.00;0.00;;;;;;;4.15;85.80;100139.69;5001775;28;20243;-57